Terminal Aerodrome Forecast
Issued by NWS Blacksburg, VA

Current Version | Previous Version | Graphics & Text | Print | Product List | Glossary On
Versions: 1 2 3 4 5 6 7 8 9 10 11 12 13 14 15 16 17 18 19 20 21 22 23 24 25 26 27 28 29 30 31 32 33 34
000
FTUS41 KRNK 241731
TAFBLF
TAF
KBLF 241731Z 2418/2518 30009G15KT P6SM SKC
     FM242100 29006KT P6SM SCT250
     FM250600 15003KT P6SM OVC070
     FM251300 15005KT P6SM -RA OVC035
     FM251600 15006KT 5SM RA BR OVC012=

USA.gov is the U.S. government's official web portal to all federal, state and local government web resources and services.